Time;durP1;ratioP1;P1;durP2;ratioP2;P2;SDS_P1;SDS_P2;PMS_P1;PMS_P2;Temp;Humidity;BMP_temperature;BMP_pressure;BME280_temperature;BME280_humidity;BME280_pressure;Samples;Min_cycle;Max_cycle;Signal;HPM_P1;HPM_P2
2024/01/23 00:03:01;;;;;;;13.52;2.75;;;23.60;42.10;;;;;;10430103;28;20051;-46
2024/01/23 00:08:04;;;;;;;8.45;2.30;;;23.50;41.00;;;;;;10436847;28;20041;-48
2024/01/23 00:13:06;;;;;;;11.57;2.38;;;23.40;40.60;;;;;;10439794;28;20049;-48
2024/01/23 00:18:08;;;;;;;20.67;2.88;;;23.30;39.90;;;;;;10438721;28;20280;-50
2024/01/23 00:23:10;;;;;;;8.57;2.33;;;23.30;40.20;;;;;;10438884;28;20045;-49
2024/01/23 00:28:13;;;;;;;10.68;2.58;;;23.30;40.00;;;;;;10426864;28;20041;-52
2024/01/23 00:33:15;;;;;;;8.00;2.70;;;23.40;38.90;;;;;;10437128;28;20570;-47
2024/01/23 00:38:18;;;;;;;8.20;2.60;;;23.20;39.90;;;;;;10427991;28;20517;-47
2024/01/23 00:43:19;;;;;;;9.13;2.70;;;23.40;39.30;;;;;;10435178;28;20517;-47
2024/01/23 00:48:21;;;;;;;8.10;2.28;;;23.30;39.60;;;;;;10437313;28;20638;-50
2024/01/23 00:53:24;;;;;;;8.77;2.65;;;23.30;39.10;;;;;;10434944;28;20156;-50
2024/01/23 00:58:26;;;;;;;17.27;2.80;;;23.30;39.00;;;;;;10439323;28;20507;-47
2024/01/23 01:03:27;;;;;;;9.65;2.55;;;23.40;40.70;;;;;;10436889;28;20149;-48
2024/01/23 01:08:30;;;;;;;6.85;2.45;;;23.50;40.10;;;;;;10434761;28;20041;-47
2024/01/23 01:13:32;;;;;;;9.48;2.25;;;23.50;40.40;;;;;;10428860;28;20057;-47
2024/01/23 01:18:36;;;;;;;7.82;2.17;;;23.20;40.90;;;;;;10427839;28;20044;-49
2024/01/23 01:23:39;;;;;;;4.60;2.03;;;23.00;41.30;;;;;;10433334;28;20135;-51
2024/01/23 01:28:40;;;;;;;8.85;2.47;;;22.80;41.70;;;;;;10436970;28;20067;-48
2024/01/23 01:33:42;;;;;;;4.57;1.83;;;22.60;42.00;;;;;;10436329;28;20045;-52
2024/01/23 01:38:45;;;;;;;5.53;2.05;;;22.60;42.00;;;;;;10435724;28;20159;-47
2024/01/23 01:43:46;;;;;;;6.43;1.70;;;22.70;42.10;;;;;;10424583;28;20041;-52
2024/01/23 01:48:48;;;;;;;6.07;2.58;;;22.50;42.40;;;;;;10429042;28;20067;-48
2024/01/23 01:53:51;;;;;;;4.78;1.60;;;22.40;42.60;;;;;;10424742;28;20140;-49
2024/01/23 01:58:53;;;;;;;4.00;1.70;;;22.40;42.20;;;;;;10434042;28;20059;-47
2024/01/23 02:03:54;;;;;;;5.15;1.90;;;22.40;42.80;;;;;;10429358;28;20045;-48
2024/01/23 02:08:57;;;;;;;17.25;1.98;;;22.40;43.30;;;;;;10433971;28;20072;-49
2024/01/23 02:13:59;;;;;;;5.55;1.63;;;22.70;42.80;;;;;;10434859;28;20145;-47
2024/01/23 02:19:00;;;;;;;5.78;1.75;;;22.80;42.30;;;;;;10443592;28;20075;-48
2024/01/23 02:24:04;;;;;;;3.03;1.40;;;23.00;42.10;;;;;;10443472;28;20047;-49
2024/01/23 02:29:05;;;;;;;3.53;1.52;;;23.00;41.80;;;;;;10434285;28;20049;-48
2024/01/23 02:34:07;;;;;;;3.90;1.48;;;23.20;41.70;;;;;;10431375;28;20050;-48
2024/01/23 02:39:10;;;;;;;4.63;1.83;;;23.20;41.70;;;;;;10430552;28;20053;-49
2024/01/23 02:44:11;;;;;;;5.07;1.83;;;23.20;41.70;;;;;;10447027;28;20120;-52
2024/01/23 02:49:13;;;;;;;4.78;1.55;;;23.30;41.40;;;;;;10445301;28;20051;-47
2024/01/23 02:54:16;;;;;;;5.93;1.80;;;23.30;41.40;;;;;;10447785;28;20038;-47
2024/01/23 02:59:17;;;;;;;3.22;1.17;;;23.40;41.20;;;;;;10433200;28;20057;-48
2024/01/23 03:04:19;;;;;;;3.00;1.30;;;23.40;41.30;;;;;;10441666;28;20063;-49
2024/01/23 03:09:22;;;;;;;5.95;1.48;;;23.40;41.40;;;;;;10437516;28;20056;-49
2024/01/23 03:14:23;;;;;;;11.07;1.77;;;23.60;41.20;;;;;;10431966;28;20063;-46
2024/01/23 03:19:25;;;;;;;6.97;1.77;;;23.50;43.40;;;;;;10441047;28;20048;-49
2024/01/23 03:24:28;;;;;;;17.55;1.67;;;23.50;42.30;;;;;;10444464;28;20055;-46
2024/01/23 03:29:30;;;;;;;5.18;1.73;;;23.50;41.70;;;;;;10440746;28;20106;-46
2024/01/23 03:34:32;;;;;;;3.05;1.30;;;23.60;41.60;;;;;;10437536;28;20051;-47
2024/01/23 03:39:35;;;;;;;5.97;1.90;;;23.40;41.50;;;;;;10440903;28;20052;-48
2024/01/23 03:44:37;;;;;;;8.75;1.95;;;23.40;41.80;;;;;;10437184;28;20056;-46
2024/01/23 03:49:39;;;;;;;5.28;1.55;;;23.30;42.00;;;;;;10434306;28;20065;-46
2024/01/23 03:54:41;;;;;;;3.22;1.30;;;23.40;41.60;;;;;;10433007;28;20045;-50
2024/01/23 03:59:43;;;;;;;6.68;1.95;;;23.50;41.30;;;;;;10433788;28;20046;-46
2024/01/23 04:04:45;;;;;;;6.25;1.40;;;23.50;41.10;;;;;;10438932;28;20071;-49
2024/01/23 04:09:49;;;;;;;5.57;1.73;;;23.60;42.00;;;;;;10441311;28;20058;-46
2024/01/23 04:14:50;;;;;;;5.45;1.40;;;24.00;41.40;;;;;;10434827;28;20089;-47
2024/01/23 04:19:52;;;;;;;5.70;1.55;;;24.20;40.90;;;;;;10436267;28;20053;-46
2024/01/23 04:24:55;;;;;;;4.85;1.50;;;24.50;40.90;;;;;;10427226;28;20049;-47
2024/01/23 04:29:56;;;;;;;7.30;1.60;;;24.60;39.90;;;;;;10437301;28;20044;-47
2024/01/23 04:34:58;;;;;;;4.38;1.80;;;24.50;40.10;;;;;;10438611;28;20049;-49
2024/01/23 04:40:02;;;;;;;4.63;1.70;;;24.40;40.10;;;;;;10436383;28;20052;-46
2024/01/23 04:45:05;;;;;;;4.75;1.50;;;24.30;40.50;;;;;;10438420;28;20056;-47
2024/01/23 04:50:07;;;;;;;4.07;1.58;;;24.30;40.40;;;;;;10436083;28;20526;-46
2024/01/23 04:55:10;;;;;;;2.30;1.30;;;24.40;40.00;;;;;;10433254;28;20128;-49
2024/01/23 05:00:13;;;;;;;4.18;1.67;;;24.50;39.90;;;;;;10433213;28;20137;-48
2024/01/23 05:05:15;;;;;;;3.35;1.60;;;24.50;39.70;;;;;;10435002;28;20400;-46
2024/01/23 05:10:18;;;;;;;5.47;1.80;;;24.60;39.40;;;;;;10432014;28;20494;-46
2024/01/23 05:15:20;;;;;;;5.88;1.95;;;24.50;39.40;;;;;;10432764;28;20135;-46
2024/01/23 05:20:21;;;;;;;5.43;1.60;;;24.50;39.80;;;;;;10439082;28;20047;-47
2024/01/23 05:25:25;;;;;;;5.25;1.42;;;24.60;39.40;;;;;;10437501;28;20055;-50
2024/01/23 05:30:26;;;;;;;3.75;1.58;;;24.60;39.40;;;;;;10434983;28;20038;-46
2024/01/23 05:35:28;;;;;;;5.15;1.50;;;24.60;39.30;;;;;;10432928;28;20486;-46
2024/01/23 05:40:31;;;;;;;3.85;1.67;;;24.50;39.40;;;;;;10434139;28;20450;-47
2024/01/23 05:45:32;;;;;;;5.25;2.00;;;24.50;39.50;;;;;;10429726;28;20052;-46
2024/01/23 05:50:34;;;;;;;3.58;1.52;;;24.50;39.50;;;;;;10431819;28;20055;-47
2024/01/23 05:55:37;;;;;;;3.05;1.60;;;24.50;39.50;;;;;;10432653;28;20041;-50
2024/01/23 06:00:39;;;;;;;4.22;1.85;;;24.60;39.50;;;;;;10436410;28;20045;-49
2024/01/23 06:05:40;;;;;;;5.18;2.00;;;24.30;40.70;;;;;;10427520;28;20049;-49
2024/01/23 06:10:43;;;;;;;5.82;2.10;;;24.40;40.60;;;;;;10430311;28;20047;-47
2024/01/23 06:15:45;;;;;;;12.02;3.13;;;24.50;41.20;;;;;;10429988;28;20037;-47
2024/01/23 06:20:48;;;;;;;14.63;3.30;;;24.50;42.80;;;;;;10427133;28;20081;-49
2024/01/23 06:25:51;;;;;;;19.40;3.28;;;24.70;42.70;;;;;;10430884;28;20052;-47
2024/01/23 06:30:52;;;;;;;11.70;2.80;;;24.40;43.30;;;;;;10432629;28;20631;-47
2024/01/23 06:35:54;;;;;;;13.02;3.20;;;24.70;43.00;;;;;;10433669;28;20058;-49
2024/01/23 06:40:57;;;;;;;12.02;3.20;;;24.50;42.70;;;;;;10434579;28;20514;-49
2024/01/23 06:46:00;;;;;;;11.75;3.05;;;24.50;42.00;;;;;;10431758;28;20164;-51
2024/01/23 06:51:02;;;;;;;13.63;3.28;;;24.50;42.00;;;;;;10435106;28;20520;-47
2024/01/23 06:56:05;;;;;;;13.93;3.53;;;24.50;43.50;;;;;;10424676;28;20041;-49
2024/01/23 07:01:06;;;;;;;17.13;3.15;;;24.30;44.00;;;;;;10430881;28;20133;-49
2024/01/23 07:06:08;;;;;;;16.45;3.22;;;24.10;46.20;;;;;;10435472;28;20049;-49
2024/01/23 07:11:12;;;;;;;14.27;4.20;;;24.30;45.20;;;;;;10441637;28;20044;-48
2024/01/23 07:16:14;;;;;;;14.27;3.92;;;24.20;44.50;;;;;;10433568;28;20503;-48
2024/01/23 07:21:16;;;;;;;11.90;3.65;;;24.60;41.70;;;;;;10430723;28;20171;-49
2024/01/23 07:26:18;;;;;;;12.38;3.38;;;24.50;40.90;;;;;;10436340;28;20041;-51
2024/01/23 07:31:20;;;;;;;16.52;4.32;;;24.30;40.70;;;;;;10437585;28;20124;-49
2024/01/23 07:36:22;;;;;;;13.40;3.83;;;24.30;39.90;;;;;;10427494;28;20149;-48
2024/01/23 07:41:25;;;;;;;12.10;3.83;;;24.30;39.80;;;;;;10433565;28;20052;-48
2024/01/23 07:46:26;;;;;;;11.63;3.88;;;24.30;39.30;;;;;;10436056;28;20056;-52
2024/01/23 07:51:30;;;;;;;13.00;4.13;;;24.50;38.70;;;;;;10427816;28;20129;-49
2024/01/23 07:56:33;;;;;;;11.70;4.10;;;24.40;38.70;;;;;;10432414;28;20095;-48
2024/01/23 08:01:36;;;;;;;10.73;3.45;;;24.40;38.40;;;;;;10433774;28;20047;-51
2024/01/23 08:06:37;;;;;;;14.23;3.97;;;24.30;37.90;;;;;;10437252;28;20056;-50
2024/01/23 08:11:40;;;;;;;12.52;3.90;;;24.20;37.70;;;;;;10427390;28;20052;-49
2024/01/23 08:16:44;;;;;;;15.05;4.38;;;24.30;37.10;;;;;;10427243;28;20057;-50
2024/01/23 08:21:47;;;;;;;15.45;4.38;;;24.40;36.80;;;;;;10436530;28;20048;-48
2024/01/23 08:26:52;;;;;;;16.67;4.72;;;24.10;37.20;;;;;;10433372;28;20046;-51
2024/01/23 08:31:54;;;;;;;14.10;4.68;;;24.10;37.20;;;;;;10432907;28;20132;-48
2024/01/23 08:36:57;;;;;;;14.90;4.13;;;24.00;37.20;;;;;;10431717;28;20629;-48
2024/01/23 08:42:00;;;;;;;12.70;4.03;;;24.00;37.30;;;;;;10432017;28;20125;-50
2024/01/23 08:47:03;;;;;;;13.13;4.22;;;24.00;37.20;;;;;;10431046;28;20137;-50
2024/01/23 08:52:05;;;;;;;14.85;4.22;;;24.10;37.00;;;;;;10426559;28;20053;-48
2024/01/23 08:57:09;;;;;;;13.40;4.28;;;24.00;36.80;;;;;;10429480;28;20137;-51
2024/01/23 09:02:13;;;;;;;14.57;4.22;;;24.10;36.50;;;;;;10432243;28;20052;-51
2024/01/23 09:07:16;;;;;;;12.55;4.45;;;24.00;36.40;;;;;;10427681;28;20049;-48
2024/01/23 09:12:21;;;;;;;16.85;4.78;;;23.90;36.30;;;;;;10434652;28;20041;-52
2024/01/23 09:17:23;;;;;;;14.05;4.22;;;24.00;36.20;;;;;;10426288;28;20549;-49
2024/01/23 09:22:25;;;;;;;14.02;4.32;;;23.90;36.20;;;;;;10431626;28;20045;-50
2024/01/23 09:27:27;;;;;;;14.13;4.60;;;23.90;36.20;;;;;;10427988;28;20119;-50
2024/01/23 09:32:29;;;;;;;12.80;4.47;;;23.80;36.50;;;;;;10432630;28;20048;-50
2024/01/23 09:37:31;;;;;;;14.50;4.78;;;23.80;36.40;;;;;;10433295;28;20527;-47
2024/01/23 09:42:34;;;;;;;16.10;4.20;;;23.80;36.40;;;;;;10436848;28;20428;-51
2024/01/23 09:47:36;;;;;;;19.75;4.47;;;23.90;36.70;;;;;;10434695;28;20095;-51
2024/01/23 09:52:37;;;;;;;17.20;4.70;;;23.70;37.10;;;;;;10431534;28;20065;-50
2024/01/23 09:57:41;;;;;;;13.45;4.18;;;23.90;36.90;;;;;;10430097;28;20048;-49
2024/01/23 10:02:43;;;;;;;14.45;4.38;;;23.80;37.00;;;;;;10433804;28;20494;-53
2024/01/23 10:07:45;;;;;;;14.85;4.78;;;23.90;36.80;;;;;;10430036;28;20049;-47
2024/01/23 10:12:48;;;;;;;20.02;4.15;;;23.90;37.00;;;;;;10432951;28;20051;-46
2024/01/23 10:17:50;;;;;;;17.38;4.65;;;23.90;38.10;;;;;;10429672;28;20049;-48
2024/01/23 10:22:52;;;;;;;16.40;4.57;;;24.10;38.00;;;;;;10428424;28;20076;-46
2024/01/23 10:27:56;;;;;;;14.10;4.05;;;24.00;38.20;;;;;;10434800;28;20477;-47
2024/01/23 10:32:59;;;;;;;15.07;3.83;;;24.00;38.40;;;;;;10433440;28;20047;-49
2024/01/23 10:38:02;;;;;;;14.98;4.07;;;23.80;39.30;;;;;;10430288;28;20067;-52
2024/01/23 10:43:06;;;;;;;16.23;4.22;;;23.60;39.00;;;;;;10442048;28;20060;-50
2024/01/23 10:48:08;;;;;;;11.63;3.90;;;23.80;38.70;;;;;;10440539;28;20125;-47
2024/01/23 10:53:10;;;;;;;10.68;3.65;;;23.80;38.90;;;;;;10439871;28;20525;-46
2024/01/23 10:58:19;;;;;;;12.48;3.85;;;23.80;39.00;;;;;;10444227;28;20558;-49
2024/01/23 11:03:21;;;;;;;11.02;3.60;;;23.90;39.00;;;;;;10438558;28;20060;-51
2024/01/23 11:08:25;;;;;;;10.77;3.60;;;24.00;39.00;;;;;;10437178;28;20064;-47
2024/01/23 11:13:31;;;;;;;9.07;3.10;;;24.10;39.10;;;;;;10438355;28;20050;-46
2024/01/23 11:18:34;;;;;;;11.00;3.65;;;24.20;39.10;;;;;;10439231;28;20079;-47
2024/01/23 11:23:36;;;;;;;10.05;3.15;;;24.10;39.50;;;;;;10437635;28;20386;-46
2024/01/23 11:28:39;;;;;;;9.70;3.03;;;24.20;39.70;;;;;;10440001;28;20060;-46
2024/01/23 11:33:41;;;;;;;11.52;3.30;;;24.10;40.00;;;;;;10438793;28;20045;-46
2024/01/23 11:38:43;;;;;;;9.10;3.10;;;24.20;40.00;;;;;;10427199;28;20118;-47
2024/01/23 11:43:46;;;;;;;8.50;2.88;;;24.10;40.30;;;;;;10438216;28;20499;-48
2024/01/23 11:48:48;;;;;;;9.55;2.97;;;24.30;40.30;;;;;;10438446;28;20471;-47
2024/01/23 11:53:50;;;;;;;7.00;2.75;;;24.40;40.30;;;;;;10433522;28;20534;-47
2024/01/23 11:58:53;;;;;;;9.85;2.90;;;24.40;40.60;;;;;;10439144;28;20063;-49
2024/01/23 12:03:55;;;;;;;7.13;2.60;;;24.40;40.70;;;;;;10433705;28;20053;-46
2024/01/23 12:08:56;;;;;;;5.95;2.75;;;24.50;40.70;;;;;;10434574;28;20518;-47
2024/01/23 12:13:59;;;;;;;14.05;3.33;;;24.50;40.90;;;;;;10439654;28;20471;-50
2024/01/23 12:19:01;;;;;;;8.82;2.63;;;24.60;41.10;;;;;;10429910;28;20460;-47
2024/01/23 12:24:03;;;;;;;8.82;2.70;;;24.50;40.90;;;;;;10433869;28;20071;-49
2024/01/23 12:29:06;;;;;;;11.50;2.83;;;24.50;40.90;;;;;;10433608;28;20128;-48
2024/01/23 12:34:09;;;;;;;7.25;2.47;;;24.60;40.70;;;;;;10437787;28;20045;-48
2024/01/23 12:39:11;;;;;;;6.22;2.53;;;24.50;41.00;;;;;;10435603;28;20055;-48
2024/01/23 12:44:14;;;;;;;10.75;3.40;;;24.50;41.20;;;;;;10438687;28;20061;-52
2024/01/23 12:49:15;;;;;;;31.40;4.13;;;24.40;39.20;;;;;;10434754;28;20041;-46
2024/01/23 12:54:17;;;;;;;12.65;3.67;;;24.00;39.70;;;;;;10428565;28;20057;-49
2024/01/23 12:59:21;;;;;;;17.13;3.70;;;24.20;39.70;;;;;;10435154;28;20049;-46
2024/01/23 13:04:29;;;;;;;12.90;3.65;;;23.90;41.00;;;;;;10434638;28;20045;-47
2024/01/23 13:09:31;;;;;;;15.32;3.50;;;24.10;40.60;;;;;;10434329;28;20051;-49
2024/01/23 13:14:35;;;;;;;10.68;3.22;;;24.20;40.60;;;;;;10437691;28;20463;-48
2024/01/23 13:19:37;;;;;;;11.48;3.35;;;24.40;40.20;;;;;;10432635;28;20041;-47
2024/01/23 13:24:39;;;;;;;9.38;3.03;;;24.30;40.40;;;;;;10436253;28;20689;-48
2024/01/23 13:29:42;;;;;;;10.48;3.08;;;24.30;40.80;;;;;;10438654;28;20187;-46
2024/01/23 13:34:44;;;;;;;8.95;2.80;;;24.20;41.00;;;;;;10426044;28;20055;-47
2024/01/23 13:39:47;;;;;;;14.73;3.17;;;24.20;41.00;;;;;;10435335;28;20136;-46
2024/01/23 13:44:50;;;;;;;25.40;3.72;;;24.30;40.40;;;;;;10432615;28;20155;-47
2024/01/23 13:49:52;;;;;;;10.50;3.03;;;24.40;41.00;;;;;;10436196;28;20063;-46
2024/01/23 13:54:54;;;;;;;14.23;2.92;;;24.30;41.20;;;;;;10432615;28;20131;-47
2024/01/23 13:59:57;;;;;;;12.40;3.10;;;24.30;41.40;;;;;;10431183;28;20114;-46
2024/01/23 14:04:59;;;;;;;13.70;2.70;;;24.30;41.60;;;;;;10440063;28;20067;-47
2024/01/23 14:10:00;;;;;;;13.88;2.85;;;24.40;41.60;;;;;;10427078;28;20049;-46
2024/01/23 14:15:04;;;;;;;16.23;3.17;;;24.50;41.80;;;;;;10432078;28;20094;-47
2024/01/23 14:20:10;;;;;;;13.50;3.15;;;24.50;42.00;;;;;;10429760;28;20041;-47
2024/01/23 14:25:12;;;;;;;14.15;3.63;;;24.50;42.10;;;;;;10430938;28;20532;-47
2024/01/23 14:30:16;;;;;;;7.88;2.88;;;24.40;40.00;;;;;;10432993;28;20084;-53
2024/01/23 14:35:19;;;;;;;14.93;3.20;;;24.10;41.50;;;;;;10434708;28;20521;-47
2024/01/23 14:40:22;;;;;;;9.80;2.65;;;24.40;39.60;;;;;;10436883;28;20053;-48
2024/01/23 14:45:25;;;;;;;12.85;2.53;;;24.50;39.70;;;;;;10426711;28;20058;-47
2024/01/23 14:50:27;;;;;;;10.70;3.03;;;24.30;39.60;;;;;;10429792;28;20049;-53
2024/01/23 14:55:34;;;;;;;8.93;2.60;;;24.40;39.50;;;;;;10432342;28;20132;-47
2024/01/23 15:00:37;;;;;;;4.60;2.20;;;24.50;38.60;;;;;;10430013;28;20131;-49
2024/01/23 15:05:39;;;;;;;8.48;1.95;;;24.40;38.20;;;;;;10434857;28;20072;-49
2024/01/23 15:10:43;;;;;;;7.88;2.33;;;24.30;38.50;;;;;;10427725;28;20055;-49
2024/01/23 15:15:46;;;;;;;6.72;1.90;;;24.20;38.50;;;;;;10431189;28;20068;-51
2024/01/23 15:20:47;;;;;;;8.27;1.95;;;24.30;38.10;;;;;;10432100;28;20048;-49
2024/01/23 15:25:49;;;;;;;4.75;1.75;;;24.30;37.80;;;;;;10433399;28;20041;-49
2024/01/23 15:30:53;;;;;;;8.60;2.50;;;24.30;37.70;;;;;;10439221;28;20514;-53
2024/01/23 15:35:55;;;;;;;12.63;2.72;;;24.30;36.90;;;;;;10434071;28;20430;-49
2024/01/23 15:40:56;;;;;;;10.68;2.90;;;24.50;35.80;;;;;;10437092;28;20520;-52
2024/01/23 15:45:59;;;;;;;9.73;2.97;;;24.20;35.90;;;;;;10436375;28;20037;-49
2024/01/23 15:51:01;;;;;;;9.73;2.97;;;24.30;34.70;;;;;;10432703;28;20053;-48
2024/01/23 15:56:03;;;;;;;15.10;3.08;;;24.20;34.20;;;;;;10426640;28;20405;-50
2024/01/23 16:01:06;;;;;;;11.27;3.28;;;24.30;33.60;;;;;;10429151;28;20051;-49
2024/01/23 16:06:08;;;;;;;8.73;2.75;;;23.90;34.00;;;;;;10432664;28;20042;-52
2024/01/23 16:11:09;;;;;;;8.85;2.75;;;24.00;34.10;;;;;;10441324;28;20045;-48
2024/01/23 16:16:12;;;;;;;9.80;2.90;;;23.70;34.10;;;;;;10437327;28;20052;-48
2024/01/23 16:21:14;;;;;;;10.90;2.85;;;23.70;33.90;;;;;;10433269;28;20049;-48
2024/01/23 16:26:16;;;;;;;9.85;2.80;;;23.90;33.80;;;;;;10424914;28;20045;-48
2024/01/23 16:31:19;;;;;;;8.95;2.70;;;23.90;33.80;;;;;;10428569;28;21807;-47
2024/01/23 16:36:21;;;;;;;10.57;2.80;;;23.80;34.00;;;;;;10435647;28;20388;-48
2024/01/23 16:41:23;;;;;;;9.77;2.67;;;23.60;33.90;;;;;;10430911;28;20048;-48
2024/01/23 16:46:26;;;;;;;14.43;2.65;;;23.90;33.70;;;;;;10428220;28;20048;-52
2024/01/23 16:51:28;;;;;;;9.07;2.38;;;24.10;33.70;;;;;;10431397;28;20534;-47
2024/01/23 16:56:29;;;;;;;8.48;2.30;;;24.20;33.40;;;;;;10429701;28;20406;-51
2024/01/23 17:01:32;;;;;;;14.38;2.78;;;24.30;33.10;;;;;;10436088;28;20418;-47
2024/01/23 17:06:34;;;;;;;7.55;2.25;;;24.30;32.60;;;;;;10433921;28;20115;-48
2024/01/23 17:11:35;;;;;;;5.90;2.28;;;24.20;32.90;;;;;;10437795;28;20040;-52
2024/01/23 17:16:38;;;;;;;6.72;2.70;;;24.00;33.10;;;;;;10428078;28;20053;-47
2024/01/23 17:21:40;;;;;;;11.23;2.85;;;23.80;33.20;;;;;;10425531;28;20049;-48
2024/01/23 17:26:41;;;;;;;9.93;2.75;;;24.00;32.80;;;;;;10426343;28;20037;-52
2024/01/23 17:31:44;;;;;;;6.80;2.40;;;24.00;32.80;;;;;;10437235;28;20045;-47
2024/01/23 17:36:47;;;;;;;8.95;2.55;;;24.30;32.20;;;;;;10436958;28;20037;-51
2024/01/23 17:41:49;;;;;;;10.07;2.75;;;24.20;32.00;;;;;;10434636;28;20045;-48
2024/01/23 17:46:52;;;;;;;18.70;3.05;;;24.10;31.80;;;;;;10433562;28;20053;-51
2024/01/23 17:51:53;;;;;;;8.50;2.22;;;24.00;31.90;;;;;;10434095;28;20410;-47
2024/01/23 17:56:55;;;;;;;10.85;2.58;;;24.00;32.00;;;;;;10430059;28;20045;-48
2024/01/23 18:01:58;;;;;;;5.10;2.00;;;24.10;32.10;;;;;;10429400;28;20056;-48
2024/01/23 18:07:00;;;;;;;12.27;2.03;;;23.90;33.30;;;;;;10429075;28;20402;-50
2024/01/23 18:12:01;;;;;;;8.02;2.10;;;23.90;34.00;;;;;;10434889;28;20124;-47
2024/01/23 18:17:05;;;;;;;6.30;2.08;;;24.00;33.10;;;;;;10433879;28;20051;-47
2024/01/23 18:22:06;;;;;;;8.82;2.30;;;24.10;32.60;;;;;;10433376;28;20061;-48
2024/01/23 18:27:08;;;;;;;15.20;2.53;;;24.10;32.30;;;;;;10432563;28;20144;-49
2024/01/23 18:32:11;;;;;;;4.90;2.22;;;24.00;32.20;;;;;;10426580;28;20073;-51
2024/01/23 18:37:14;;;;;;;5.75;1.80;;;23.80;32.60;;;;;;10428039;28;20136;-50
2024/01/23 18:42:15;;;;;;;3.55;1.50;;;23.90;32.80;;;;;;10431333;28;20052;-48
2024/01/23 18:47:18;;;;;;;4.07;1.50;;;23.80;33.20;;;;;;10432902;28;20041;-50
2024/01/23 18:52:20;;;;;;;4.40;1.40;;;24.10;33.20;;;;;;10434979;28;20076;-47
2024/01/23 18:57:22;;;;;;;3.40;1.38;;;24.00;33.30;;;;;;10434543;28;20496;-50
2024/01/23 19:02:24;;;;;;;4.30;1.25;;;23.90;34.00;;;;;;10442214;28;20843;-48
2024/01/23 19:07:26;;;;;;;4.15;1.15;;;24.10;35.10;;;;;;10442105;28;20065;-51
2024/01/23 19:12:28;;;;;;;4.72;1.30;;;24.30;35.60;;;;;;10439326;28;20616;-50
2024/01/23 19:17:31;;;;;;;4.60;1.20;;;24.30;36.50;;;;;;10438497;28;20055;-49
2024/01/23 19:22:32;;;;;;;5.78;1.10;;;24.40;36.90;;;;;;10442044;28;20045;-49
2024/01/23 19:27:34;;;;;;;2.75;0.80;;;24.40;37.80;;;;;;10439812;28;20056;-47
2024/01/23 19:32:37;;;;;;;2.10;0.80;;;24.50;38.40;;;;;;10442124;28;20524;-48
2024/01/23 19:37:38;;;;;;;4.25;1.30;;;24.50;39.10;;;;;;10435352;28;20418;-49
2024/01/23 19:42:41;;;;;;;9.15;1.10;;;24.40;39.30;;;;;;10434421;28;20053;-53
2024/01/23 19:47:44;;;;;;;5.68;1.00;;;24.20;39.40;;;;;;10432203;28;20568;-49
2024/01/23 19:52:45;;;;;;;4.82;0.90;;;24.20;39.90;;;;;;10435415;28;20053;-48
2024/01/23 19:57:47;;;;;;;5.05;0.40;;;24.40;39.40;;;;;;10437215;28;20041;-48
2024/01/23 20:02:50;;;;;;;4.05;0.70;;;24.60;39.10;;;;;;10437281;28;20157;-47
2024/01/23 20:07:51;;;;;;;2.58;0.82;;;24.90;38.20;;;;;;10436952;28;20056;-47
2024/01/23 20:12:53;;;;;;;2.15;0.73;;;25.10;37.40;;;;;;10438448;28;20051;-50
2024/01/23 20:17:56;;;;;;;2.90;1.02;;;25.10;37.20;;;;;;10428039;28;20052;-48
2024/01/23 20:22:58;;;;;;;8.15;1.05;;;24.70;37.80;;;;;;10428619;28;20132;-53
2024/01/23 20:28:00;;;;;;;6.57;1.50;;;24.60;37.80;;;;;;10432321;28;20040;-49
2024/01/23 20:33:03;;;;;;;3.97;1.08;;;24.70;37.70;;;;;;10426675;28;20151;-47
2024/01/23 20:38:05;;;;;;;3.75;0.90;;;24.60;37.70;;;;;;10433086;28;20049;-49
2024/01/23 20:43:07;;;;;;;3.85;0.63;;;24.70;37.70;;;;;;10433217;28;20045;-47
2024/01/23 20:48:10;;;;;;;3.63;0.95;;;24.40;38.30;;;;;;10431185;28;20056;-49
2024/01/23 20:53:12;;;;;;;3.38;0.80;;;24.60;37.60;;;;;;10435861;28;20124;-47
2024/01/23 20:58:13;;;;;;;1.48;0.90;;;24.50;37.60;;;;;;10431390;28;20053;-49
2024/01/23 21:03:16;;;;;;;1.92;0.88;;;24.40;37.90;;;;;;10428613;28;20053;-48
2024/01/23 21:08:18;;;;;;;9.68;0.95;;;24.30;38.30;;;;;;10427706;28;20056;-46
2024/01/23 21:13:20;;;;;;;5.68;0.90;;;24.30;39.00;;;;;;10435293;28;20044;-46
2024/01/23 21:18:23;;;;;;;4.47;0.90;;;24.40;38.80;;;;;;10431377;28;20059;-47
2024/01/23 21:23:24;;;;;;;4.63;0.95;;;24.60;38.20;;;;;;10437616;28;20045;-46
2024/01/23 21:28:26;;;;;;;2.83;0.75;;;24.70;38.40;;;;;;10440890;28;20053;-49
2024/01/23 21:33:29;;;;;;;4.70;0.90;;;24.30;38.30;;;;;;10434097;28;20049;-45
2024/01/23 21:38:30;;;;;;;1.63;0.85;;;24.40;40.90;;;;;;10431707;28;20528;-52
2024/01/23 21:43:32;;;;;;;6.93;1.00;;;24.40;41.40;;;;;;10428786;28;20049;-45
2024/01/23 21:48:35;;;;;;;4.40;1.08;;;24.30;51.20;;;;;;10429626;28;20047;-47
2024/01/23 21:53:37;;;;;;;1.58;0.63;;;24.30;43.40;;;;;;10428007;28;20578;-45
2024/01/23 21:58:39;;;;;;;1.17;0.60;;;24.10;39.80;;;;;;10423928;28;20454;-45
2024/01/23 22:03:42;;;;;;;1.70;0.68;;;23.90;39.10;;;;;;10436653;28;20045;-45
2024/01/23 22:08:43;;;;;;;1.60;0.70;;;23.70;39.30;;;;;;10437400;28;20163;-46
2024/01/23 22:13:45;;;;;;;2.97;0.60;;;23.30;40.80;;;;;;10432608;28;20049;-45
2024/01/23 22:18:48;;;;;;;1.50;0.65;;;23.70;39.80;;;;;;10429656;28;20045;-47
2024/01/23 22:23:50;;;;;;;5.25;0.70;;;23.70;40.40;;;;;;10428223;28;20053;-45
2024/01/23 22:28:52;;;;;;;3.40;0.60;;;23.90;40.10;;;;;;10431824;28;20052;-55
2024/01/23 22:33:55;;;;;;;2.95;0.60;;;23.90;40.60;;;;;;10440132;28;20049;-44
2024/01/23 22:38:57;;;;;;;1.95;0.60;;;24.00;40.70;;;;;;10437121;28;20430;-45
2024/01/23 22:43:58;;;;;;;2.65;0.50;;;23.80;41.80;;;;;;10447479;28;20057;-45
2024/01/23 22:49:01;;;;;;;2.47;0.52;;;23.50;43.50;;;;;;10434870;28;20045;-46
2024/01/23 22:54:03;;;;;;;4.32;0.80;;;23.50;44.00;;;;;;10441603;28;20068;-45
2024/01/23 22:59:05;;;;;;;4.78;0.50;;;23.70;44.10;;;;;;10432896;28;20049;-45
2024/01/23 23:04:08;;;;;;;2.42;0.57;;;24.00;43.70;;;;;;10431726;28;20049;-47
2024/01/23 23:09:10;;;;;;;1.55;0.68;;;24.00;41.10;;;;;;10435241;28;20055;-45
2024/01/23 23:14:12;;;;;;;1.50;0.60;;;23.90;41.70;;;;;;10444873;28;20637;-47
2024/01/23 23:19:16;;;;;;;2.03;0.40;;;24.00;41.60;;;;;;10448552;28;20037;-46
2024/01/23 23:24:17;;;;;;;1.33;0.40;;;24.10;41.90;;;;;;10435570;28;20477;-48
2024/01/23 23:29:19;;;;;;;0.30;0.30;;;23.60;43.00;;;;;;10435590;28;20143;-50
2024/01/23 23:34:22;;;;;;;0.50;0.50;;;23.90;40.70;;;;;;10435938;28;20045;-45
2024/01/23 23:39:23;;;;;;;3.70;0.40;;;23.80;40.40;;;;;;10425812;28;20136;-46
2024/01/23 23:44:25;;;;;;;0.63;0.50;;;23.60;40.60;;;;;;10428348;28;20128;-44
2024/01/23 23:49:28;;;;;;;3.03;0.40;;;23.10;42.20;;;;;;10433570;28;20144;-46
2024/01/23 23:54:30;;;;;;;3.30;1.02;;;23.00;43.00;;;;;;10438816;28;20045;-44
2024/01/23 23:59:31;;;;;;;2.20;0.40;;;23.20;43.20;;;;;;10441465;28;20494;-45
